Hauptseite
METAR-TAF:

METAR-TAF

Flughäfen :

Flughafen Rostock-Laage

Rostock, Deutschland

Breite: 53-55N, Länge: 012-17E, Höhe: 40 m

Beobachtung

Neuester Wetterbericht von vor 48 Minuten, um 23:20 UTC
Wind 5 kt aus Nord/Nordwest
Temperatur 0°C
Luftfeuchtigkeit 86%
Luftdruck 1020 hPa
Sichtweite 10 km oder mehr
Aufgelockert bewölkt in der Höhe von 6000 ft

METAR: ETNL 042320Z 33005KT 9999 SCT060 M00/M02 Q1020 BLU+

Zeit: 01:08 (00:08 UTC)

Prognose

Neuester Wetterbericht von vor 58 Minuten, um 23:10 UTC
Gültige Prognose vom 05 um 00 UTC bis 05 um 12 UTC
Wind 7 kt aus Nord
Sichtweite 10 km oder mehr
Leicht bewölkt in der Höhe von 2000 ft
Wahrscheinlichkeit 30%
vom 05 um 02 UTC bis 05 um 07 UTC
Wind 3 kt aus Nord/Nordwest
Sichtweite: 4000 m
Durchbrochene Bewölkung in der Höhe von 600 ft
Flacher Nebel

TAF: ETNL 042310Z 0500/0512 36007KT 9999 NSW FEW020 PROB30 0502/0507 33003KT 4000 MIFG BKN006 BY ETGL

Wetterbeobachtungen und Prognosen von mehr als 4000 Flughäfen (METAR und TAF Bericht).

Die verfügbaren Stationen werden durch gelbe und rote Markierungen auf der Karte dargestellt.

Führen Sie die Maus auf sie, um den Namen der Station zu sehen.

Darauf klicken, um die Beobachtung von Wetterbeobachtungen und Prognosen zu sehen.

Um die Karte zu ändern : klicken Sie auf den grünen Tasten mit einem schwarzen Kreuz Zum Vergrößern, auf den grünen Button mit einem Gedankenstrich zu verkleinern, oder auf die grünen Pfeile für benachbarte Karten.


METAR-TAF: